Home > Products > Valid Products > OSO

000
SXUS56 KLOX 280042
OSOLOX

OFFSHORE OIL PLATFORM IRENE WEATHER
NATIONAL WEATHER SERVICE OXNARD CA
540 AM PDT SUN JUL 27 2014

OBSERVATION FROM DRILLING RIG "IRENE"
LOCATION 34 DEG 37 MIN N...120 DEG 44 MIN W...30 MILES SW
OF SANTA MARIA...ANEMOMETER LOCATED 305 FEET ABOVE SEA LEVEL.

SPECI 272030Z 30005KT 8SM OVC 16/16 A3003 RMKS SEAS 1 TO 2 FEET

$$





























































































































































































































000
SXUS56 KLOX 280042
OSOLOX

OFFSHORE OIL PLATFORM IRENE WEATHER
NATIONAL WEATHER SERVICE OXNARD CA
540 AM PDT SUN JUL 27 2014

OBSERVATION FROM DRILLING RIG "IRENE"
LOCATION 34 DEG 37 MIN N...120 DEG 44 MIN W...30 MILES SW
OF SANTA MARIA...ANEMOMETER LOCATED 305 FEET ABOVE SEA LEVEL.

SPECI 272030Z 30005KT 8SM OVC 16/16 A3003 RMKS SEAS 1 TO 2 FEET

$$






























































































































































































































000
SXUS56 KLOX 271518
OSOLOX

OFFSHORE OIL PLATFORM IRENE WEATHER
NATIONAL WEATHER SERVICE OXNARD CA
820 AM PDT SUN JUL 27 2014

OBSERVATION FROM DRILLING RIG "IRENE"
LOCATION 34 DEG 37 MIN N...120 DEG 44 MIN W...30 MILES SW
OF SANTA MARIA...ANEMOMETER LOCATED 305 FEET ABOVE SEA LEVEL.

SPECI 271515Z 01007KT 0SM FG VV003 16/15 A3000 RMKS SEAS 2 TO 3 FEET

$$



























































































































































































































000
SXUS56 KLOX 271518
OSOLOX

OFFSHORE OIL PLATFORM IRENE WEATHER
NATIONAL WEATHER SERVICE OXNARD CA
820 AM PDT SUN JUL 27 2014

OBSERVATION FROM DRILLING RIG "IRENE"
LOCATION 34 DEG 37 MIN N...120 DEG 44 MIN W...30 MILES SW
OF SANTA MARIA...ANEMOMETER LOCATED 305 FEET ABOVE SEA LEVEL.

SPECI 271515Z 01007KT 0SM FG VV003 16/15 A3000 RMKS SEAS 2 TO 3 FEET

$$




























































































































































































































000
SXUS56 KLOX 271411
OSOLOX

OFFSHORE OIL PLATFORM IRENE WEATHER
NATIONAL WEATHER SERVICE OXNARD CA
710 AM PST SUN JUL 27 2014

OBSERVATION FROM DRILLING RIG "IRENE"
LOCATION 34 DEG 37 MIN N...120 DEG 44 MIN W...30 MILES SW
OF SANTA MARIA...ANEMOMETER LOCATED 305 FEET ABOVE SEA LEVEL.

SPECI 271405Z 35005KT 0SM FG VV001 16/15 A2999 RMKS SEAS 2 TO 3 FEET

$$


























































































































































































































000
SXUS56 KLOX 271411
OSOLOX

OFFSHORE OIL PLATFORM IRENE WEATHER
NATIONAL WEATHER SERVICE OXNARD CA
710 AM PST SUN JUL 27 2014

OBSERVATION FROM DRILLING RIG "IRENE"
LOCATION 34 DEG 37 MIN N...120 DEG 44 MIN W...30 MILES SW
OF SANTA MARIA...ANEMOMETER LOCATED 305 FEET ABOVE SEA LEVEL.

SPECI 271405Z 35005KT 0SM FG VV001 16/15 A2999 RMKS SEAS 2 TO 3 FEET

$$

























































































































































































































000
SXUS56 KLOX 262241
OSOLOX

OFFSHORE OIL PLATFORM IRENE WEATHER
NATIONAL WEATHER SERVICE OXNARD CA
340 PM PDT SAT JUL 26 2014

OBSERVATION FROM DRILLING RIG "IRENE"
LOCATION 34 DEG 37 MIN N...120 DEG 44 MIN W...30 MILES SW
OF SANTA MARIA...ANEMOMETER LOCATED 305 FEET ABOVE SEA LEVEL.

SPECI 262125Z 21010KT 10SM OVC007 21/16 A2999 RMKS SEAS 4 TO 5 FEET

$$
























































































































































































































000
SXUS56 KLOX 262241
OSOLOX

OFFSHORE OIL PLATFORM IRENE WEATHER
NATIONAL WEATHER SERVICE OXNARD CA
340 PM PDT SAT JUL 26 2014

OBSERVATION FROM DRILLING RIG "IRENE"
LOCATION 34 DEG 37 MIN N...120 DEG 44 MIN W...30 MILES SW
OF SANTA MARIA...ANEMOMETER LOCATED 305 FEET ABOVE SEA LEVEL.

SPECI 262125Z 21010KT 10SM OVC007 21/16 A2999 RMKS SEAS 4 TO 5 FEET

$$

























































































































































































































000
SXUS56 KLOX 261752
OSOLOX

OFFSHORE OIL PLATFORM IRENE WEATHER
NATIONAL WEATHER SERVICE OXNARD CA
1050 PM PST SAT JUL 26 2014

OBSERVATION FROM DRILLING RIG "IRENE"
LOCATION 34 DEG 37 MIN N...120 DEG 44 MIN W...30 MILES SW
OF SANTA MARIA...ANEMOMETER LOCATED 305 FEET ABOVE SEA LEVEL.

SPECI 261745Z 00000KT 0SM VV001 18/14 A3000 RMKS SEAS 1 TO 2 FEET

$$























































































































































































































000
SXUS56 KLOX 261752
OSOLOX

OFFSHORE OIL PLATFORM IRENE WEATHER
NATIONAL WEATHER SERVICE OXNARD CA
1050 PM PST SAT JUL 26 2014

OBSERVATION FROM DRILLING RIG "IRENE"
LOCATION 34 DEG 37 MIN N...120 DEG 44 MIN W...30 MILES SW
OF SANTA MARIA...ANEMOMETER LOCATED 305 FEET ABOVE SEA LEVEL.

SPECI 261745Z 00000KT 0SM VV001 18/14 A3000 RMKS SEAS 1 TO 2 FEET

$$
























































































































































































































000
SXUS56 KLOX 261414
OSOLOX

OFFSHORE OIL PLATFORM HARVEST WEATHER
NATIONAL WEATHER SERVICE OXNARD CA
715 AM PDT SAT JUL 26 2014

OBSERVATION FROM DRILLING RIG "HARVEST"
LOCATION 34 DEG 28 MIN N...120 DEG 41 MIN W...12 MILES W
PT CONCEPTION ANEMOMETER LOCATED 163 FEET ABOVE SEA LEVEL.
WIND SENSOR IS PARTIALLY BLOCKED BY OIL RIG STRUCTURE.

SPECI 261346Z 33005KT 0SM FG OVC000 14/14 A2994 RMKS
SEAS 6 TO 8 FEET

$$

















































































































































































































































































































000
SXUS56 KLOX 261414
OSOLOX

OFFSHORE OIL PLATFORM HARVEST WEATHER
NATIONAL WEATHER SERVICE OXNARD CA
715 AM PDT SAT JUL 26 2014

OBSERVATION FROM DRILLING RIG "HARVEST"
LOCATION 34 DEG 28 MIN N...120 DEG 41 MIN W...12 MILES W
PT CONCEPTION ANEMOMETER LOCATED 163 FEET ABOVE SEA LEVEL.
WIND SENSOR IS PARTIALLY BLOCKED BY OIL RIG STRUCTURE.

SPECI 261346Z 33005KT 0SM FG OVC000 14/14 A2994 RMKS
SEAS 6 TO 8 FEET

$$
















































































































































































































































































































000
SXUS56 KLOX 251630
OSOLOX

OFFSHORE OIL PLATFORM HARVEST WEATHER
NATIONAL WEATHER SERVICE OXNARD CA
930 AM PDT FRI JUL 25 2014

OBSERVATION FROM DRILLING RIG "HARVEST"
LOCATION 34 DEG 28 MIN N...120 DEG 41 MIN W...12 MILES W
PT CONCEPTION ANEMOMETER LOCATED 163 FEET ABOVE SEA LEVEL.
WIND SENSOR IS PARTIALLY BLOCKED BY OIL RIG STRUCTURE.

SPECI 251625Z 33010KT 2SM BR OVC003 16/15 A2991 RMKS
SEAS 6 TO 8 FEET

$$













































































































































































































































































































000
SXUS56 KLOX 251630
OSOLOX

OFFSHORE OIL PLATFORM HARVEST WEATHER
NATIONAL WEATHER SERVICE OXNARD CA
930 AM PDT FRI JUL 25 2014

OBSERVATION FROM DRILLING RIG "HARVEST"
LOCATION 34 DEG 28 MIN N...120 DEG 41 MIN W...12 MILES W
PT CONCEPTION ANEMOMETER LOCATED 163 FEET ABOVE SEA LEVEL.
WIND SENSOR IS PARTIALLY BLOCKED BY OIL RIG STRUCTURE.

SPECI 251625Z 33010KT 2SM BR OVC003 16/15 A2991 RMKS
SEAS 6 TO 8 FEET

$$














































































































































































































































































































    US Dept of Commerce
    National Oceanic and Atmospheric Administration
    National Weather Service
    1325 East West Highway
    Silver Spring, MD 20910
    Page Author: NWS Internet Services Team
Disclaimer
Information Quality
Credits
Glossary
Privacy Policy
Freedom of Information Act (FOIA)
About Us
Career Opportunities